Harmony, Minnesota
Current Conditions -  °F | °C
As of 8:15 PM on Thursday 20 Nov 2014 (Local Time) from KFKA Reporting Station
Clear Clear  
Wind Chill: -4°   Ceiling: Unl
Heat Index:   Visibility: 10mi
Dew Point:   Wind: 6mph
Humidity: 76%   Direction: 260°W
Pressure: 30.22"   Gusts: NA
Location:  43.56°N, 92.01°W
Report Text: KFKA 210215Z AUTO 26005KT 10SM CLR M14/M18 A3022 RMK AO2 T11421176
Loading
Personal Weather Stations






























Interactive Weather Map New forecast layout! Learn more

10-Day Weather Forecast

Advertisements
Track Severe Weather on mobile